Terminal Aerodrome Forecast
Issued by NWS

Home | Current Version | Previous Version | Text Only | Print | Product List | Glossary On
Versions: 1 2 3 4 5 6 7 8 9 10 11 12 13 14 15 16 17
000
FTUS42 KMLB 171121
TAFLEE
TAF
KLEE 171121Z 1712/1812 14003KT P6SM BKN250
      TEMPO 1712/1713 5SM BR
     FM171400 17006KT P6SM SCT040
     FM180000 11003KT P6SM FEW035
     FM180600 19003KT P6SM FEW003
      TEMPO 1808/1812 2SM BR SCT003=

USA.gov is the U.S. government's official web portal to all federal, state and local government web resources and services.